Kortenberg, Belgium
Current Conditions -  °F | °C
As of 1:50 PM on Saturday 25 Oct 2014 (Local Time) from EBBR Reporting Station
Broken Clouds Broken Clouds  
Wind Chill: 13°   Ceiling: 800
Heat Index: 13°   Visibility: 4mi
Dew Point: 12°   Wind: 7mph
Humidity: 94%   Direction: 240°WSW
Pressure: 30.09"   Gusts: NA
Location:  50.89°N, 4.54°E
Report Text: EBBR 251150Z 24006KT 7000 BKN008 BKN040 13/12 Q1019 NOSIG
Loading
Personal Weather Stations






























Interactive Weather Map
Tropical Storm Tracking
New forecast layout! Learn more

10-Day Weather Forecast

Advertisements
Track Severe Weather on mobile